sensor_id;sensor_type;location;lat;lon;timestamp;P1;durP1;ratioP1;P2;durP2;ratioP2
74465;SDS011;62916;50.044;15.938;2023-01-04T00:00:19;9.30;;;7.90;;
74465;SDS011;62916;50.044;15.938;2023-01-04T00:02:50;8.60;;;7.80;;
74465;SDS011;62916;50.044;15.938;2023-01-04T00:05:21;8.50;;;7.70;;
74465;SDS011;62916;50.044;15.938;2023-01-04T00:07:52;9.00;;;8.20;;
74465;SDS011;62916;50.044;15.938;2023-01-04T00:10:23;9.20;;;8.30;;
74465;SDS011;62916;50.044;15.938;2023-01-04T00:12:53;9.00;;;8.10;;
74465;SDS011;62916;50.044;15.938;2023-01-04T00:15:24;9.10;;;8.30;;
74465;SDS011;62916;50.044;15.938;2023-01-04T00:17:55;8.80;;;7.90;;
74465;SDS011;62916;50.044;15.938;2023-01-04T00:20:25;11.30;;;9.00;;
74465;SDS011;62916;50.044;15.938;2023-01-04T00:22:56;8.90;;;8.00;;
74465;SDS011;62916;50.044;15.938;2023-01-04T00:25:27;8.40;;;7.70;;
74465;SDS011;62916;50.044;15.938;2023-01-04T00:27:57;9.00;;;8.00;;
74465;SDS011;62916;50.044;15.938;2023-01-04T00:30:28;8.70;;;7.80;;
74465;SDS011;62916;50.044;15.938;2023-01-04T00:32:59;8.40;;;7.30;;
74465;SDS011;62916;50.044;15.938;2023-01-04T00:35:30;8.30;;;7.20;;
74465;SDS011;62916;50.044;15.938;2023-01-04T00:38:13;8.80;;;7.90;;
74465;SDS011;62916;50.044;15.938;2023-01-04T00:40:43;8.20;;;7.40;;
74465;SDS011;62916;50.044;15.938;2023-01-04T00:43:14;8.50;;;7.70;;
74465;SDS011;62916;50.044;15.938;2023-01-04T00:45:45;9.70;;;8.80;;
74465;SDS011;62916;50.044;15.938;2023-01-04T00:48:16;7.90;;;7.10;;
74465;SDS011;62916;50.044;15.938;2023-01-04T00:50:47;8.00;;;7.20;;
74465;SDS011;62916;50.044;15.938;2023-01-04T00:53:18;8.20;;;7.20;;
74465;SDS011;62916;50.044;15.938;2023-01-04T00:55:48;8.10;;;7.30;;
74465;SDS011;62916;50.044;15.938;2023-01-04T00:58:19;8.60;;;7.90;;
74465;SDS011;62916;50.044;15.938;2023-01-04T01:00:50;8.90;;;8.10;;
74465;SDS011;62916;50.044;15.938;2023-01-04T01:03:21;9.10;;;7.50;;
74465;SDS011;62916;50.044;15.938;2023-01-04T01:05:52;7.70;;;6.90;;
74465;SDS011;62916;50.044;15.938;2023-01-04T01:08:23;9.60;;;8.80;;
74465;SDS011;62916;50.044;15.938;2023-01-04T01:10:54;7.80;;;7.10;;
74465;SDS011;62916;50.044;15.938;2023-01-04T01:13:30;7.60;;;6.80;;
74465;SDS011;62916;50.044;15.938;2023-01-04T01:16:05;8.30;;;7.40;;
74465;SDS011;62916;50.044;15.938;2023-01-04T01:18:38;7.90;;;7.20;;
74465;SDS011;62916;50.044;15.938;2023-01-04T01:21:11;7.70;;;7.00;;
74465;SDS011;62916;50.044;15.938;2023-01-04T01:23:43;8.20;;;7.40;;
74465;SDS011;62916;50.044;15.938;2023-01-04T01:26:16;8.50;;;7.80;;
74465;SDS011;62916;50.044;15.938;2023-01-04T01:28:48;7.80;;;7.00;;
74465;SDS011;62916;50.044;15.938;2023-01-04T01:31:20;8.60;;;7.90;;
74465;SDS011;62916;50.044;15.938;2023-01-04T01:33:53;8.00;;;7.20;;
74465;SDS011;62916;50.044;15.938;2023-01-04T01:36:25;7.60;;;6.90;;
74465;SDS011;62916;50.044;15.938;2023-01-04T01:38:56;7.40;;;6.80;;
74465;SDS011;62916;50.044;15.938;2023-01-04T01:41:27;7.70;;;6.90;;
74465;SDS011;62916;50.044;15.938;2023-01-04T01:44:00;7.90;;;7.20;;
74465;SDS011;62916;50.044;15.938;2023-01-04T01:46:34;7.40;;;6.70;;
74465;SDS011;62916;50.044;15.938;2023-01-04T01:49:10;6.90;;;6.20;;
74465;SDS011;62916;50.044;15.938;2023-01-04T01:51:48;7.30;;;6.60;;
74465;SDS011;62916;50.044;15.938;2023-01-04T01:54:21;7.70;;;7.00;;
74465;SDS011;62916;50.044;15.938;2023-01-04T01:56:58;7.70;;;6.60;;
74465;SDS011;62916;50.044;15.938;2023-01-04T01:59:31;7.80;;;6.60;;
74465;SDS011;62916;50.044;15.938;2023-01-04T02:02:04;7.90;;;7.20;;
74465;SDS011;62916;50.044;15.938;2023-01-04T02:04:36;7.20;;;6.60;;
74465;SDS011;62916;50.044;15.938;2023-01-04T02:07:13;6.70;;;6.10;;
74465;SDS011;62916;50.044;15.938;2023-01-04T02:09:47;8.80;;;8.10;;
74465;SDS011;62916;50.044;15.938;2023-01-04T02:12:18;7.30;;;6.60;;
74465;SDS011;62916;50.044;15.938;2023-01-04T02:14:49;7.00;;;6.30;;
74465;SDS011;62916;50.044;15.938;2023-01-04T02:17:23;7.30;;;6.60;;
74465;SDS011;62916;50.044;15.938;2023-01-04T02:29:36;7.20;;;6.50;;
74465;SDS011;62916;50.044;15.938;2023-01-04T02:32:24;6.40;;;5.80;;
74465;SDS011;62916;50.044;15.938;2023-01-04T02:35:08;6.60;;;6.00;;
74465;SDS011;62916;50.044;15.938;2023-01-04T02:37:47;6.90;;;6.30;;
74465;SDS011;62916;50.044;15.938;2023-01-04T02:40:27;7.00;;;6.40;;
74465;SDS011;62916;50.044;15.938;2023-01-04T02:43:08;6.40;;;5.80;;
74465;SDS011;62916;50.044;15.938;2023-01-04T02:46:04;6.70;;;6.00;;
74465;SDS011;62916;50.044;15.938;2023-01-04T02:48:41;7.00;;;6.00;;
74465;SDS011;62916;50.044;15.938;2023-01-04T02:51:31;6.90;;;6.20;;
74465;SDS011;62916;50.044;15.938;2023-01-04T02:54:06;6.30;;;5.70;;
74465;SDS011;62916;50.044;15.938;2023-01-04T02:56:44;6.40;;;5.80;;
74465;SDS011;62916;50.044;15.938;2023-01-04T02:59:52;6.50;;;5.90;;
74465;SDS011;62916;50.044;15.938;2023-01-04T03:02:39;6.40;;;5.80;;
74465;SDS011;62916;50.044;15.938;2023-01-04T03:05:38;6.80;;;5.60;;
74465;SDS011;62916;50.044;15.938;2023-01-04T03:08:32;6.80;;;6.10;;
74465;SDS011;62916;50.044;15.938;2023-01-04T03:11:08;6.50;;;5.90;;
74465;SDS011;62916;50.044;15.938;2023-01-04T03:13:55;6.50;;;5.80;;
74465;SDS011;62916;50.044;15.938;2023-01-04T03:16:50;6.30;;;5.60;;
74465;SDS011;62916;50.044;15.938;2023-01-04T03:19:23;6.20;;;5.60;;
74465;SDS011;62916;50.044;15.938;2023-01-04T03:22:09;5.90;;;5.30;;
74465;SDS011;62916;50.044;15.938;2023-01-04T03:24:57;6.30;;;5.60;;
74465;SDS011;62916;50.044;15.938;2023-01-04T03:27:47;6.00;;;5.40;;
74465;SDS011;62916;50.044;15.938;2023-01-04T03:30:40;6.00;;;5.40;;
74465;SDS011;62916;50.044;15.938;2023-01-04T03:33:37;5.70;;;5.20;;
74465;SDS011;62916;50.044;15.938;2023-01-04T03:36:28;6.20;;;5.70;;
74465;SDS011;62916;50.044;15.938;2023-01-04T03:39:07;5.60;;;5.00;;
74465;SDS011;62916;50.044;15.938;2023-01-04T03:42:03;5.70;;;5.20;;
74465;SDS011;62916;50.044;15.938;2023-01-04T03:44:58;5.80;;;5.30;;
74465;SDS011;62916;50.044;15.938;2023-01-04T03:47:56;10.50;;;5.30;;
74465;SDS011;62916;50.044;15.938;2023-01-04T03:50:54;5.30;;;4.80;;
74465;SDS011;62916;50.044;15.938;2023-01-04T03:53:30;5.90;;;5.40;;
74465;SDS011;62916;50.044;15.938;2023-01-04T03:56:06;5.70;;;5.10;;
74465;SDS011;62916;50.044;15.938;2023-01-04T03:58:39;5.10;;;4.60;;
74465;SDS011;62916;50.044;15.938;2023-01-04T04:01:10;6.90;;;6.20;;
74465;SDS011;62916;50.044;15.938;2023-01-04T04:03:42;5.50;;;4.90;;
74465;SDS011;62916;50.044;15.938;2023-01-04T04:06:30;6.00;;;5.10;;
74465;SDS011;62916;50.044;15.938;2023-01-04T04:09:18;6.40;;;5.90;;
74465;SDS011;62916;50.044;15.938;2023-01-04T04:11:49;5.50;;;5.00;;
74465;SDS011;62916;50.044;15.938;2023-01-04T04:14:20;5.10;;;4.70;;
74465;SDS011;62916;50.044;15.938;2023-01-04T04:16:50;6.50;;;5.90;;
74465;SDS011;62916;50.044;15.938;2023-01-04T04:19:21;6.10;;;5.10;;
74465;SDS011;62916;50.044;15.938;2023-01-04T04:21:52;5.30;;;4.80;;
74465;SDS011;62916;50.044;15.938;2023-01-04T04:24:23;5.50;;;5.00;;
74465;SDS011;62916;50.044;15.938;2023-01-04T04:26:55;5.50;;;4.70;;
74465;SDS011;62916;50.044;15.938;2023-01-04T04:29:29;4.90;;;4.50;;
74465;SDS011;62916;50.044;15.938;2023-01-04T04:32:00;5.10;;;4.70;;
74465;SDS011;62916;50.044;15.938;2023-01-04T04:34:31;5.10;;;4.50;;
74465;SDS011;62916;50.044;15.938;2023-01-04T04:37:03;4.80;;;4.40;;
74465;SDS011;62916;50.044;15.938;2023-01-04T04:39:33;5.20;;;4.70;;
74465;SDS011;62916;50.044;15.938;2023-01-04T04:42:04;5.10;;;4.60;;
74465;SDS011;62916;50.044;15.938;2023-01-04T04:44:36;5.40;;;4.90;;
74465;SDS011;62916;50.044;15.938;2023-01-04T04:47:07;5.10;;;4.50;;
74465;SDS011;62916;50.044;15.938;2023-01-04T04:49:37;4.80;;;4.40;;
74465;SDS011;62916;50.044;15.938;2023-01-04T04:52:08;4.90;;;4.40;;
74465;SDS011;62916;50.044;15.938;2023-01-04T04:54:39;4.90;;;4.20;;
74465;SDS011;62916;50.044;15.938;2023-01-04T04:57:09;4.90;;;4.10;;
74465;SDS011;62916;50.044;15.938;2023-01-04T04:59:40;5.00;;;4.40;;
74465;SDS011;62916;50.044;15.938;2023-01-04T05:02:11;5.00;;;4.20;;
74465;SDS011;62916;50.044;15.938;2023-01-04T05:04:42;4.70;;;4.30;;
74465;SDS011;62916;50.044;15.938;2023-01-04T05:07:13;4.60;;;4.20;;
74465;SDS011;62916;50.044;15.938;2023-01-04T05:09:44;4.50;;;4.10;;
74465;SDS011;62916;50.044;15.938;2023-01-04T05:12:14;4.80;;;4.40;;
74465;SDS011;62916;50.044;15.938;2023-01-04T05:15:04;4.70;;;4.20;;
74465;SDS011;62916;50.044;15.938;2023-01-04T05:17:36;4.70;;;4.30;;
74465;SDS011;62916;50.044;15.938;2023-01-04T05:20:07;4.70;;;4.10;;
74465;SDS011;62916;50.044;15.938;2023-01-04T05:22:39;4.60;;;4.10;;
74465;SDS011;62916;50.044;15.938;2023-01-04T05:25:10;4.70;;;4.20;;
74465;SDS011;62916;50.044;15.938;2023-01-04T05:27:41;4.70;;;4.20;;
74465;SDS011;62916;50.044;15.938;2023-01-04T05:30:13;4.70;;;4.30;;
74465;SDS011;62916;50.044;15.938;2023-01-04T05:33:02;4.00;;;3.60;;
74465;SDS011;62916;50.044;15.938;2023-01-04T05:35:33;4.70;;;4.10;;
74465;SDS011;62916;50.044;15.938;2023-01-04T05:38:04;5.60;;;5.10;;
74465;SDS011;62916;50.044;15.938;2023-01-04T05:40:35;5.10;;;4.50;;
74465;SDS011;62916;50.044;15.938;2023-01-04T05:43:05;5.20;;;4.20;;
74465;SDS011;62916;50.044;15.938;2023-01-04T05:45:36;4.40;;;3.70;;
74465;SDS011;62916;50.044;15.938;2023-01-04T05:48:07;5.20;;;4.50;;
74465;SDS011;62916;50.044;15.938;2023-01-04T05:50:38;4.30;;;3.90;;
74465;SDS011;62916;50.044;15.938;2023-01-04T05:53:09;4.20;;;3.80;;
74465;SDS011;62916;50.044;15.938;2023-01-04T05:55:40;5.10;;;4.60;;
74465;SDS011;62916;50.044;15.938;2023-01-04T05:58:11;5.10;;;4.70;;
74465;SDS011;62916;50.044;15.938;2023-01-04T06:00:42;4.50;;;4.10;;
74465;SDS011;62916;50.044;15.938;2023-01-04T06:03:13;4.50;;;4.00;;
74465;SDS011;62916;50.044;15.938;2023-01-04T06:05:47;4.00;;;3.60;;
74465;SDS011;62916;50.044;15.938;2023-01-04T06:08:18;3.80;;;3.50;;
74465;SDS011;62916;50.044;15.938;2023-01-04T06:10:52;3.70;;;3.40;;
74465;SDS011;62916;50.044;15.938;2023-01-04T06:13:23;4.40;;;3.90;;
74465;SDS011;62916;50.044;15.938;2023-01-04T06:15:54;3.90;;;3.60;;
74465;SDS011;62916;50.044;15.938;2023-01-04T06:18:25;3.90;;;3.60;;
74465;SDS011;62916;50.044;15.938;2023-01-04T06:20:56;3.80;;;3.50;;
74465;SDS011;62916;50.044;15.938;2023-01-04T06:23:27;4.30;;;3.90;;
74465;SDS011;62916;50.044;15.938;2023-01-04T06:25:58;4.10;;;3.70;;
74465;SDS011;62916;50.044;15.938;2023-01-04T06:28:29;4.20;;;3.70;;
74465;SDS011;62916;50.044;15.938;2023-01-04T06:31:07;3.60;;;3.30;;
74465;SDS011;62916;50.044;15.938;2023-01-04T06:33:39;4.70;;;4.10;;
74465;SDS011;62916;50.044;15.938;2023-01-04T06:36:10;4.60;;;4.10;;
74465;SDS011;62916;50.044;15.938;2023-01-04T06:38:47;3.80;;;3.40;;
74465;SDS011;62916;50.044;15.938;2023-01-04T06:41:18;4.10;;;3.70;;
74465;SDS011;62916;50.044;15.938;2023-01-04T06:43:49;3.60;;;3.30;;
74465;SDS011;62916;50.044;15.938;2023-01-04T06:46:20;5.90;;;4.30;;
74465;SDS011;62916;50.044;15.938;2023-01-04T06:48:51;4.20;;;3.60;;
74465;SDS011;62916;50.044;15.938;2023-01-04T06:51:23;4.40;;;4.00;;
74465;SDS011;62916;50.044;15.938;2023-01-04T06:53:54;4.80;;;3.60;;
74465;SDS011;62916;50.044;15.938;2023-01-04T06:56:24;4.50;;;4.10;;
74465;SDS011;62916;50.044;15.938;2023-01-04T06:58:57;4.30;;;3.90;;
74465;SDS011;62916;50.044;15.938;2023-01-04T07:01:28;5.70;;;3.90;;
74465;SDS011;62916;50.044;15.938;2023-01-04T07:03:59;4.20;;;3.80;;
74465;SDS011;62916;50.044;15.938;2023-01-04T07:06:30;4.40;;;3.70;;
74465;SDS011;62916;50.044;15.938;2023-01-04T07:09:01;5.10;;;3.90;;
74465;SDS011;62916;50.044;15.938;2023-01-04T07:11:32;5.80;;;4.70;;
74465;SDS011;62916;50.044;15.938;2023-01-04T07:14:03;4.20;;;3.20;;
74465;SDS011;62916;50.044;15.938;2023-01-04T07:16:34;4.30;;;3.90;;
74465;SDS011;62916;50.044;15.938;2023-01-04T07:19:04;4.20;;;3.80;;
74465;SDS011;62916;50.044;15.938;2023-01-04T07:21:40;4.20;;;3.80;;
74465;SDS011;62916;50.044;15.938;2023-01-04T07:24:11;4.10;;;3.50;;
74465;SDS011;62916;50.044;15.938;2023-01-04T07:26:42;4.90;;;3.70;;
74465;SDS011;62916;50.044;15.938;2023-01-04T07:29:13;5.30;;;4.60;;
74465;SDS011;62916;50.044;15.938;2023-01-04T07:31:45;12.40;;;5.80;;
74465;SDS011;62916;50.044;15.938;2023-01-04T07:34:18;14.20;;;5.40;;
74465;SDS011;62916;50.044;15.938;2023-01-04T07:36:50;33.00;;;6.70;;
74465;SDS011;62916;50.044;15.938;2023-01-04T07:39:22;21.90;;;6.10;;
74465;SDS011;62916;50.044;15.938;2023-01-04T07:41:52;15.80;;;4.70;;
74465;SDS011;62916;50.044;15.938;2023-01-04T07:44:23;20.50;;;5.30;;
74465;SDS011;62916;50.044;15.938;2023-01-04T07:46:55;17.80;;;4.70;;
74465;SDS011;62916;50.044;15.938;2023-01-04T07:49:26;16.30;;;5.20;;
74465;SDS011;62916;50.044;15.938;2023-01-04T07:51:56;18.90;;;5.40;;
74465;SDS011;62916;50.044;15.938;2023-01-04T07:54:27;15.90;;;5.00;;
74465;SDS011;62916;50.044;15.938;2023-01-04T07:56:58;15.40;;;4.50;;
74465;SDS011;62916;50.044;15.938;2023-01-04T07:59:29;14.90;;;4.40;;
74465;SDS011;62916;50.044;15.938;2023-01-04T08:02:00;14.40;;;4.80;;
74465;SDS011;62916;50.044;15.938;2023-01-04T08:04:31;15.40;;;4.80;;
74465;SDS011;62916;50.044;15.938;2023-01-04T08:07:02;10.10;;;3.80;;
74465;SDS011;62916;50.044;15.938;2023-01-04T08:09:33;11.50;;;3.90;;
74465;SDS011;62916;50.044;15.938;2023-01-04T08:12:04;12.50;;;4.80;;
74465;SDS011;62916;50.044;15.938;2023-01-04T08:14:35;9.80;;;4.50;;
74465;SDS011;62916;50.044;15.938;2023-01-04T08:17:06;12.00;;;4.00;;
74465;SDS011;62916;50.044;15.938;2023-01-04T08:19:37;11.80;;;4.10;;
74465;SDS011;62916;50.044;15.938;2023-01-04T08:22:08;11.10;;;3.70;;
74465;SDS011;62916;50.044;15.938;2023-01-04T08:24:39;8.90;;;4.60;;
74465;SDS011;62916;50.044;15.938;2023-01-04T08:27:10;7.20;;;3.60;;
74465;SDS011;62916;50.044;15.938;2023-01-04T08:29:41;10.00;;;3.70;;
74465;SDS011;62916;50.044;15.938;2023-01-04T08:32:12;11.20;;;4.30;;
74465;SDS011;62916;50.044;15.938;2023-01-04T08:34:42;8.20;;;3.60;;
74465;SDS011;62916;50.044;15.938;2023-01-04T08:37:14;9.00;;;3.80;;
74465;SDS011;62916;50.044;15.938;2023-01-04T08:39:44;7.70;;;3.70;;
74465;SDS011;62916;50.044;15.938;2023-01-04T08:42:16;6.30;;;3.50;;
74465;SDS011;62916;50.044;15.938;2023-01-04T08:44:58;6.30;;;3.60;;
74465;SDS011;62916;50.044;15.938;2023-01-04T08:47:29;6.30;;;3.40;;
74465;SDS011;62916;50.044;15.938;2023-01-04T08:50:01;6.70;;;3.50;;
74465;SDS011;62916;50.044;15.938;2023-01-04T08:52:37;7.60;;;3.40;;
74465;SDS011;62916;50.044;15.938;2023-01-04T08:55:09;7.30;;;4.00;;
74465;SDS011;62916;50.044;15.938;2023-01-04T08:57:45;8.80;;;4.00;;
74465;SDS011;62916;50.044;15.938;2023-01-04T09:00:16;5.90;;;2.90;;
74465;SDS011;62916;50.044;15.938;2023-01-04T09:02:48;5.60;;;3.10;;
74465;SDS011;62916;50.044;15.938;2023-01-04T09:05:19;5.70;;;3.20;;
74465;SDS011;62916;50.044;15.938;2023-01-04T09:07:52;8.90;;;3.50;;
74465;SDS011;62916;50.044;15.938;2023-01-04T09:10:23;5.60;;;3.50;;
74465;SDS011;62916;50.044;15.938;2023-01-04T09:12:54;6.30;;;3.60;;
74465;SDS011;62916;50.044;15.938;2023-01-04T09:15:25;6.30;;;3.70;;
74465;SDS011;62916;50.044;15.938;2023-01-04T09:17:56;6.00;;;3.10;;
74465;SDS011;62916;50.044;15.938;2023-01-04T09:20:47;7.70;;;3.60;;
74465;SDS011;62916;50.044;15.938;2023-01-04T09:23:17;9.20;;;3.30;;
74465;SDS011;62916;50.044;15.938;2023-01-04T09:25:48;5.50;;;3.00;;
74465;SDS011;62916;50.044;15.938;2023-01-04T09:28:19;4.80;;;3.10;;
74465;SDS011;62916;50.044;15.938;2023-01-04T09:30:50;5.70;;;3.10;;
74465;SDS011;62916;50.044;15.938;2023-01-04T09:33:21;5.90;;;3.20;;
74465;SDS011;62916;50.044;15.938;2023-01-04T09:36:13;4.40;;;2.90;;
74465;SDS011;62916;50.044;15.938;2023-01-04T09:38:45;6.90;;;3.90;;
74465;SDS011;62916;50.044;15.938;2023-01-04T09:41:19;8.80;;;4.90;;
74465;SDS011;62916;50.044;15.938;2023-01-04T09:43:54;15.90;;;7.00;;
74465;SDS011;62916;50.044;15.938;2023-01-04T09:46:30;14.80;;;7.70;;
74465;SDS011;62916;50.044;15.938;2023-01-04T09:49:10;17.10;;;8.30;;
74465;SDS011;62916;50.044;15.938;2023-01-04T09:51:47;19.20;;;8.30;;
74465;SDS011;62916;50.044;15.938;2023-01-04T09:54:27;15.70;;;8.50;;
74465;SDS011;62916;50.044;15.938;2023-01-04T09:57:04;16.10;;;7.80;;
74465;SDS011;62916;50.044;15.938;2023-01-04T09:59:45;17.50;;;8.00;;
74465;SDS011;62916;50.044;15.938;2023-01-04T10:02:20;23.20;;;8.80;;
74465;SDS011;62916;50.044;15.938;2023-01-04T10:04:55;18.90;;;9.60;;
74465;SDS011;62916;50.044;15.938;2023-01-04T10:07:30;17.70;;;8.80;;
74465;SDS011;62916;50.044;15.938;2023-01-04T10:10:02;17.00;;;8.40;;
74465;SDS011;62916;50.044;15.938;2023-01-04T10:12:42;17.10;;;8.60;;
74465;SDS011;62916;50.044;15.938;2023-01-04T10:15:29;19.70;;;9.20;;
74465;SDS011;62916;50.044;15.938;2023-01-04T10:18:15;33.80;;;14.20;;
74465;SDS011;62916;50.044;15.938;2023-01-04T10:21:27;35.30;;;15.10;;
74465;SDS011;62916;50.044;15.938;2023-01-04T10:24:18;48.60;;;17.60;;
74465;SDS011;62916;50.044;15.938;2023-01-04T10:27:07;61.10;;;24.10;;
74465;SDS011;62916;50.044;15.938;2023-01-04T10:29:48;56.70;;;21.90;;
74465;SDS011;62916;50.044;15.938;2023-01-04T10:32:32;57.10;;;22.60;;
74465;SDS011;62916;50.044;15.938;2023-01-04T10:35:15;57.50;;;22.50;;
74465;SDS011;62916;50.044;15.938;2023-01-04T10:37:49;57.70;;;22.60;;
74465;SDS011;62916;50.044;15.938;2023-01-04T10:40:25;59.40;;;25.10;;
74465;SDS011;62916;50.044;15.938;2023-01-04T10:43:00;58.50;;;24.00;;
74465;SDS011;62916;50.044;15.938;2023-01-04T10:45:37;60.70;;;24.40;;
74465;SDS011;62916;50.044;15.938;2023-01-04T10:48:16;122.70;;;46.30;;
74465;SDS011;62916;50.044;15.938;2023-01-04T10:50:53;88.30;;;35.60;;
74465;SDS011;62916;50.044;15.938;2023-01-04T10:53:34;86.60;;;34.60;;
74465;SDS011;62916;50.044;15.938;2023-01-04T10:56:14;90.10;;;34.50;;
74465;SDS011;62916;50.044;15.938;2023-01-04T10:58:56;86.50;;;36.20;;
74465;SDS011;62916;50.044;15.938;2023-01-04T11:06:39;77.60;;;31.20;;
74465;SDS011;62916;50.044;15.938;2023-01-04T11:09:16;80.40;;;35.20;;
74465;SDS011;62916;50.044;15.938;2023-01-04T11:11:54;76.10;;;32.40;;
74465;SDS011;62916;50.044;15.938;2023-01-04T11:14:26;75.30;;;33.50;;
74465;SDS011;62916;50.044;15.938;2023-01-04T11:17:04;77.70;;;31.80;;
74465;SDS011;62916;50.044;15.938;2023-01-04T11:19:38;76.70;;;31.20;;
74465;SDS011;62916;50.044;15.938;2023-01-04T11:22:13;74.00;;;31.20;;
74465;SDS011;62916;50.044;15.938;2023-01-04T11:24:49;69.20;;;27.90;;
74465;SDS011;62916;50.044;15.938;2023-01-04T11:27:45;70.00;;;26.90;;
74465;SDS011;62916;50.044;15.938;2023-01-04T11:30:20;66.00;;;28.10;;
74465;SDS011;62916;50.044;15.938;2023-01-04T11:32:55;63.30;;;26.80;;
74465;SDS011;62916;50.044;15.938;2023-01-04T11:35:40;71.50;;;27.70;;
74465;SDS011;62916;50.044;15.938;2023-01-04T11:38:13;56.30;;;24.90;;
74465;SDS011;62916;50.044;15.938;2023-01-04T11:40:54;60.20;;;26.70;;
74465;SDS011;62916;50.044;15.938;2023-01-04T11:43:27;59.50;;;26.10;;
74465;SDS011;62916;50.044;15.938;2023-01-04T11:46:02;57.30;;;25.80;;
74465;SDS011;62916;50.044;15.938;2023-01-04T11:48:36;66.40;;;26.50;;
74465;SDS011;62916;50.044;15.938;2023-01-04T11:51:18;57.00;;;24.50;;
74465;SDS011;62916;50.044;15.938;2023-01-04T11:54:03;59.50;;;24.60;;
74465;SDS011;62916;50.044;15.938;2023-01-04T11:56:58;57.70;;;24.60;;
74465;SDS011;62916;50.044;15.938;2023-01-04T11:59:39;55.10;;;24.10;;
74465;SDS011;62916;50.044;15.938;2023-01-04T12:02:20;50.30;;;22.10;;
74465;SDS011;62916;50.044;15.938;2023-01-04T12:05:16;51.20;;;21.90;;
74465;SDS011;62916;50.044;15.938;2023-01-04T12:07:56;53.90;;;23.40;;
74465;SDS011;62916;50.044;15.938;2023-01-04T12:10:28;52.90;;;25.30;;
74465;SDS011;62916;50.044;15.938;2023-01-04T12:13:00;47.10;;;20.50;;
74465;SDS011;62916;50.044;15.938;2023-01-04T12:15:33;49.40;;;21.00;;
74465;SDS011;62916;50.044;15.938;2023-01-04T12:18:11;47.40;;;21.70;;
74465;SDS011;62916;50.044;15.938;2023-01-04T12:20:45;43.60;;;19.80;;
74465;SDS011;62916;50.044;15.938;2023-01-04T12:23:16;43.20;;;20.30;;
74465;SDS011;62916;50.044;15.938;2023-01-04T12:25:48;41.90;;;19.00;;
74465;SDS011;62916;50.044;15.938;2023-01-04T12:28:31;41.10;;;17.80;;
74465;SDS011;62916;50.044;15.938;2023-01-04T12:37:11;31.10;;;14.70;;
74465;SDS011;62916;50.044;15.938;2023-01-04T12:43:24;37.30;;;16.10;;
74465;SDS011;62916;50.044;15.938;2023-01-04T12:52:40;30.90;;;15.30;;
74465;SDS011;62916;50.044;15.938;2023-01-04T13:04:49;24.90;;;11.80;;
74465;SDS011;62916;50.044;15.938;2023-01-04T13:07:42;27.00;;;12.10;;
74465;SDS011;62916;50.044;15.938;2023-01-04T13:10:20;26.10;;;12.70;;
74465;SDS011;62916;50.044;15.938;2023-01-04T13:15:53;26.40;;;12.60;;
74465;SDS011;62916;50.044;15.938;2023-01-04T13:18:38;27.70;;;12.90;;
74465;SDS011;62916;50.044;15.938;2023-01-04T13:21:11;25.40;;;12.40;;
74465;SDS011;62916;50.044;15.938;2023-01-04T13:29:16;24.00;;;11.80;;
74465;SDS011;62916;50.044;15.938;2023-01-04T13:31:50;23.10;;;11.60;;
74465;SDS011;62916;50.044;15.938;2023-01-04T13:34:25;24.80;;;12.50;;
74465;SDS011;62916;50.044;15.938;2023-01-04T13:37:03;26.60;;;12.70;;
74465;SDS011;62916;50.044;15.938;2023-01-04T13:39:37;49.50;;;21.60;;
74465;SDS011;62916;50.044;15.938;2023-01-04T13:42:13;32.00;;;15.70;;
74465;SDS011;62916;50.044;15.938;2023-01-04T13:48:02;32.60;;;14.20;;
74465;SDS011;62916;50.044;15.938;2023-01-04T13:50:39;29.30;;;14.80;;
74465;SDS011;62916;50.044;15.938;2023-01-04T13:53:20;32.90;;;16.00;;
74465;SDS011;62916;50.044;15.938;2023-01-04T13:55:54;34.30;;;15.30;;
74465;SDS011;62916;50.044;15.938;2023-01-04T13:58:28;31.70;;;14.10;;
74465;SDS011;62916;50.044;15.938;2023-01-04T14:01:03;28.90;;;15.50;;
74465;SDS011;62916;50.044;15.938;2023-01-04T14:03:41;29.30;;;14.90;;
74465;SDS011;62916;50.044;15.938;2023-01-04T14:06:18;26.60;;;14.50;;
74465;SDS011;62916;50.044;15.938;2023-01-04T14:08:54;27.70;;;13.50;;
74465;SDS011;62916;50.044;15.938;2023-01-04T14:11:30;34.20;;;15.40;;
74465;SDS011;62916;50.044;15.938;2023-01-04T14:14:31;28.10;;;14.10;;
74465;SDS011;62916;50.044;15.938;2023-01-04T14:20:02;27.60;;;13.30;;
74465;SDS011;62916;50.044;15.938;2023-01-04T14:22:55;25.10;;;13.20;;
74465;SDS011;62916;50.044;15.938;2023-01-04T14:28:28;33.50;;;16.60;;
74465;SDS011;62916;50.044;15.938;2023-01-04T14:31:20;35.60;;;15.40;;
74465;SDS011;62916;50.044;15.938;2023-01-04T14:34:02;34.30;;;16.30;;
74465;SDS011;62916;50.044;15.938;2023-01-04T14:36:36;30.10;;;14.50;;
74465;SDS011;62916;50.044;15.938;2023-01-04T14:39:15;28.50;;;14.30;;
74465;SDS011;62916;50.044;15.938;2023-01-04T14:41:54;30.10;;;15.00;;
74465;SDS011;62916;50.044;15.938;2023-01-04T14:44:27;28.20;;;14.90;;
74465;SDS011;62916;50.044;15.938;2023-01-04T14:47:02;28.90;;;15.10;;
74465;SDS011;62916;50.044;15.938;2023-01-04T14:49:34;28.90;;;14.30;;
74465;SDS011;62916;50.044;15.938;2023-01-04T14:52:09;28.50;;;14.30;;
74465;SDS011;62916;50.044;15.938;2023-01-04T14:54:46;28.90;;;14.50;;
74465;SDS011;62916;50.044;15.938;2023-01-04T14:57:18;25.10;;;13.70;;
74465;SDS011;62916;50.044;15.938;2023-01-04T14:59:50;26.20;;;14.00;;
74465;SDS011;62916;50.044;15.938;2023-01-04T15:02:21;23.20;;;13.60;;
74465;SDS011;62916;50.044;15.938;2023-01-04T15:04:54;26.70;;;13.90;;
74465;SDS011;62916;50.044;15.938;2023-01-04T15:07:31;26.90;;;13.80;;
74465;SDS011;62916;50.044;15.938;2023-01-04T15:10:09;27.90;;;15.90;;
74465;SDS011;62916;50.044;15.938;2023-01-04T15:12:50;27.10;;;13.40;;
74465;SDS011;62916;50.044;15.938;2023-01-04T15:15:21;26.80;;;13.00;;
74465;SDS011;62916;50.044;15.938;2023-01-04T15:17:53;25.00;;;13.70;;
74465;SDS011;62916;50.044;15.938;2023-01-04T15:20:24;25.60;;;13.20;;
74465;SDS011;62916;50.044;15.938;2023-01-04T15:22:55;23.60;;;12.70;;
74465;SDS011;62916;50.044;15.938;2023-01-04T15:25:27;23.40;;;12.40;;
74465;SDS011;62916;50.044;15.938;2023-01-04T15:27:59;23.20;;;11.90;;
74465;SDS011;62916;50.044;15.938;2023-01-04T15:30:41;24.80;;;12.70;;
74465;SDS011;62916;50.044;15.938;2023-01-04T15:33:12;22.60;;;13.00;;
74465;SDS011;62916;50.044;15.938;2023-01-04T15:35:43;27.00;;;12.90;;
74465;SDS011;62916;50.044;15.938;2023-01-04T15:38:15;27.40;;;15.20;;
74465;SDS011;62916;50.044;15.938;2023-01-04T15:40:46;22.40;;;11.60;;
74465;SDS011;62916;50.044;15.938;2023-01-04T15:43:17;21.20;;;11.90;;
74465;SDS011;62916;50.044;15.938;2023-01-04T15:45:49;22.80;;;11.50;;
74465;SDS011;62916;50.044;15.938;2023-01-04T15:48:20;23.00;;;10.90;;
74465;SDS011;62916;50.044;15.938;2023-01-04T15:50:52;21.90;;;12.10;;
74465;SDS011;62916;50.044;15.938;2023-01-04T15:53:23;21.00;;;10.60;;
74465;SDS011;62916;50.044;15.938;2023-01-04T15:56:02;20.50;;;11.70;;
74465;SDS011;62916;50.044;15.938;2023-01-04T15:58:37;20.50;;;10.70;;
74465;SDS011;62916;50.044;15.938;2023-01-04T16:01:09;20.50;;;11.70;;
74465;SDS011;62916;50.044;15.938;2023-01-04T16:03:42;18.70;;;9.80;;
74465;SDS011;62916;50.044;15.938;2023-01-04T16:06:20;19.10;;;10.60;;
74465;SDS011;62916;50.044;15.938;2023-01-04T16:08:54;20.10;;;10.60;;